Time;durP1;ratioP1;P1;durP2;ratioP2;P2;SDS_P1;SDS_P2;PMS_P1;PMS_P2;Temp;Humidity;BMP_temperature;BMP_pressure;BME280_temperature;BME280_humidity;BME280_pressure;Samples;Min_cycle;Max_cycle;Signal;HPM_P1;HPM_P2
2021/07/02 00:01:40;;;;;;;24.63;8.50;;;14.20;99.90;;;12.96;100.00;100811.06;4996566;28;20102;-73
2021/07/02 00:04:07;;;;;;;28.50;9.30;;;14.20;99.90;;;12.89;100.00;100806.13;4994522;28;20057;-73
2021/07/02 00:06:34;;;;;;;27.60;9.40;;;14.20;99.90;;;12.92;100.00;100803.31;5001199;28;20080;-73
2021/07/02 00:09:00;;;;;;;23.33;9.82;;;14.20;99.90;;;12.91;100.00;100801.63;5006532;28;20985;-73
2021/07/02 00:11:26;;;;;;;30.98;10.57;;;14.30;99.90;;;12.94;100.00;100803.22;5000211;28;20059;-74
2021/07/02 00:13:52;;;;;;;27.02;8.25;;;14.20;99.90;;;12.91;100.00;100806.91;4998065;28;20123;-73
2021/07/02 00:16:18;;;;;;;46.78;6.93;;;13.90;99.90;;;12.39;100.00;100807.06;5004271;28;20534;-73
2021/07/02 00:18:44;;;;;;;29.90;5.47;;;13.60;99.90;;;12.07;100.00;100811.38;5000560;28;20425;-74
2021/07/02 00:21:10;;;;;;;14.57;6.10;;;13.50;99.90;;;12.17;100.00;100799.41;5004281;28;20080;-73
2021/07/02 00:23:36;;;;;;;16.85;6.07;;;13.50;99.90;;;12.24;100.00;100803.44;4998867;28;24948;-74
2021/07/02 00:26:02;;;;;;;20.25;7.28;;;13.60;99.90;;;12.29;100.00;100803.22;4989672;28;20088;-74
2021/07/02 00:28:28;;;;;;;16.95;7.15;;;13.70;99.90;;;12.35;100.00;100794.94;5003389;28;20510;-73
2021/07/02 00:30:54;;;;;;;27.70;8.40;;;13.70;99.90;;;12.36;100.00;100799.31;5001609;28;20056;-73
2021/07/02 00:33:20;;;;;;;31.38;8.45;;;13.70;99.90;;;12.37;100.00;100802.78;5010011;28;20072;-74
2021/07/02 00:35:46;;;;;;;23.23;7.80;;;13.60;99.90;;;12.32;100.00;100806.53;5001684;28;20059;-73
2021/07/02 00:38:12;;;;;;;33.42;8.90;;;13.60;99.90;;;12.35;100.00;100816.06;5000181;28;20068;-73
2021/07/02 00:40:38;;;;;;;19.55;8.18;;;13.70;99.90;;;12.34;100.00;100810.88;5002100;28;20085;-73
2021/07/02 00:43:05;;;;;;;25.88;8.43;;;13.60;99.90;;;12.34;100.00;100824.09;4969206;28;20499;-73
2021/07/02 00:45:33;;;;;;;24.35;8.88;;;13.60;99.90;;;12.38;100.00;100823.00;4972440;28;20073;-73
2021/07/02 00:48:03;;;;;;;30.67;8.98;;;13.80;99.90;;;12.57;100.00;100820.22;4999979;28;20080;-74
2021/07/02 00:50:31;;;;;;;32.85;10.35;;;14.00;99.90;;;12.73;100.00;100821.09;5001811;28;20398;-74
2021/07/02 00:52:57;;;;;;;31.80;9.68;;;14.10;99.90;;;12.74;100.00;100820.16;4996095;28;20057;-73
2021/07/02 00:55:23;;;;;;;31.20;9.95;;;14.10;99.90;;;12.73;100.00;100829.03;5002089;28;20176;-74
2021/07/02 00:57:50;;;;;;;25.80;10.43;;;14.00;99.90;;;12.71;100.00;100833.53;4983277;28;20049;-73
2021/07/02 01:00:18;;;;;;;35.05;10.50;;;14.00;99.90;;;12.70;100.00;100832.69;4998263;28;20547;-73
2021/07/02 01:02:44;;;;;;;32.03;11.48;;;14.00;99.90;;;12.73;100.00;100826.38;5002361;28;22412;-73
2021/07/02 01:05:11;;;;;;;34.72;10.65;;;14.00;99.90;;;12.70;100.00;100827.41;4998688;28;20062;-73
2021/07/02 01:07:39;;;;;;;29.80;11.73;;;14.00;99.90;;;12.64;100.00;100825.09;5000305;28;20076;-74
2021/07/02 01:10:05;;;;;;;33.83;11.05;;;13.90;99.90;;;12.59;100.00;100831.56;4997414;28;20083;-74
2021/07/02 01:12:31;;;;;;;30.73;10.10;;;13.80;99.90;;;12.49;100.00;100824.13;4983807;28;20062;-73
2021/07/02 01:14:57;;;;;;;30.27;11.15;;;13.80;99.90;;;12.52;100.00;100828.38;5003472;28;20435;-74
2021/07/02 01:17:23;;;;;;;34.33;11.57;;;13.80;99.90;;;12.57;100.00;100823.72;5001131;28;20384;-74
2021/07/02 01:19:53;;;;;;;36.85;11.25;;;13.90;99.90;;;12.64;100.00;100826.91;5001968;28;20064;-74
2021/07/02 01:22:25;;;;;;;37.67;11.57;;;13.90;99.90;;;12.65;100.00;100815.38;5001247;28;20061;-74
2021/07/02 01:24:54;;;;;;;37.72;11.27;;;14.00;99.90;;;12.68;100.00;100825.81;4979579;28;20075;-74
2021/07/02 01:27:21;;;;;;;33.97;11.80;;;14.00;99.90;;;12.71;100.00;100823.81;4982215;28;20078;-74
2021/07/02 01:29:48;;;;;;;34.60;12.00;;;14.00;99.90;;;12.75;100.00;100826.31;4954715;28;20058;-74
2021/07/02 01:32:18;;;;;;;37.08;11.60;;;14.00;99.90;;;12.65;100.00;100832.06;4980136;28;20075;-74
2021/07/02 01:34:44;;;;;;;43.72;12.85;;;13.90;99.90;;;12.60;100.00;100835.91;4991015;28;20069;-74
2021/07/02 01:37:12;;;;;;;29.75;10.95;;;13.90;99.90;;;12.56;100.00;100827.28;5004083;28;20064;-74
2021/07/02 01:39:38;;;;;;;34.28;11.60;;;13.90;99.90;;;12.59;100.00;100828.91;5001044;28;20102;-74
2021/07/02 01:42:09;;;;;;;38.88;12.15;;;13.90;99.90;;;12.59;100.00;100827.16;4998059;28;20070;-74
2021/07/02 01:44:38;;;;;;;39.92;11.60;;;13.90;99.90;;;12.56;100.00;100821.16;5016133;28;20072;-74
2021/07/02 01:47:05;;;;;;;43.53;11.80;;;13.80;99.90;;;12.54;100.00;100823.03;4990431;28;21064;-74
2021/07/02 01:49:31;;;;;;;29.65;12.68;;;13.80;99.90;;;12.54;100.00;100817.75;4988784;28;20048;-73
2021/07/02 01:51:57;;;;;;;33.92;11.70;;;13.80;99.90;;;12.52;100.00;100823.09;5001610;28;20090;-73
2021/07/02 01:54:24;;;;;;;44.00;12.73;;;13.80;99.90;;;12.56;100.00;100824.66;4997465;28;20134;-74
2021/07/02 01:56:51;;;;;;;41.92;13.40;;;13.90;99.90;;;12.59;100.00;100832.44;5001082;28;20065;-73
2021/07/02 01:59:18;;;;;;;54.15;13.77;;;13.90;99.90;;;12.61;100.00;100827.91;5000278;28;20105;-74
2021/07/02 02:01:48;;;;;;;43.35;13.02;;;13.90;99.90;;;12.54;100.00;100825.66;4991781;28;20131;-74
2021/07/02 02:04:15;;;;;;;38.53;12.57;;;14.30;99.90;;;12.49;100.00;100823.28;4999356;28;20071;-73
2021/07/02 02:06:41;;;;;;;160.23;11.52;;;13.70;99.90;;;12.19;100.00;100826.59;4995779;28;20085;-74
2021/07/02 02:09:07;;;;;;;36.17;11.35;;;13.60;99.90;;;12.25;100.00;100826.28;4991395;28;20088;-74
2021/07/02 02:11:34;;;;;;;30.27;11.75;;;13.60;99.90;;;12.27;100.00;100826.19;4999817;28;20055;-74
2021/07/02 02:14:01;;;;;;;30.38;11.18;;;13.60;99.90;;;12.26;100.00;100832.41;5002068;28;20056;-74
2021/07/02 02:16:27;;;;;;;37.45;11.38;;;13.60;99.90;;;12.35;100.00;100836.34;4998667;28;20065;-74
2021/07/02 02:18:53;;;;;;;39.90;13.15;;;13.70;99.90;;;12.34;100.00;100824.09;4999915;28;20071;-73
2021/07/02 02:21:19;;;;;;;47.22;12.20;;;13.70;99.90;;;12.34;100.00;100819.66;4999180;28;20158;-74
2021/07/02 02:23:45;;;;;;;32.78;10.90;;;13.60;99.90;;;12.34;100.00;100824.94;4997797;28;20063;-74
2021/07/02 02:26:12;;;;;;;32.92;11.80;;;13.60;99.90;;;12.35;100.00;100821.34;5015404;28;20076;-73
2021/07/02 02:28:38;;;;;;;40.15;12.77;;;13.70;99.90;;;12.36;100.00;100824.88;4990893;28;20144;-74
2021/07/02 02:31:04;;;;;;;42.35;12.20;;;13.60;99.90;;;12.32;100.00;100832.94;4999248;28;20058;-74
2021/07/02 02:33:30;;;;;;;41.20;12.25;;;13.60;99.90;;;12.28;100.00;100841.09;4997953;28;20152;-74
2021/07/02 02:35:56;;;;;;;39.40;12.30;;;;;;;12.19;100.00;100834.50;4998573;28;20065;-74
2021/07/02 02:38:22;;;;;;;38.50;11.85;;;13.50;99.90;;;12.18;100.00;100835.44;4999356;28;20147;-73
2021/07/02 02:40:48;;;;;;;32.78;11.10;;;13.50;99.90;;;12.14;100.00;100835.66;4995663;28;20057;-74
2021/07/02 02:43:14;;;;;;;36.22;9.85;;;13.40;99.90;;;12.06;100.00;100836.91;4998179;28;20521;-74
2021/07/02 02:45:40;;;;;;;31.75;10.32;;;13.40;99.90;;;12.05;100.00;100845.78;4996056;28;20562;-74
2021/07/02 02:48:06;;;;;;;32.58;10.15;;;13.40;99.90;;;12.04;100.00;100837.94;5002173;28;20105;-74
2021/07/02 02:50:32;;;;;;;32.90;11.23;;;13.40;99.90;;;12.10;100.00;100843.75;5010197;28;20106;-74
2021/07/02 02:52:58;;;;;;;34.70;11.32;;;13.50;99.90;;;12.19;100.00;100842.41;5003608;28;20490;-74
2021/07/02 02:55:24;;;;;;;37.63;11.10;;;13.50;99.90;;;12.21;100.00;100845.00;5001694;28;20130;-73
2021/07/02 02:57:50;;;;;;;46.28;11.00;;;13.50;99.90;;;12.20;100.00;100848.53;5001510;28;21603;-74
2021/07/02 03:00:16;;;;;;;39.15;11.82;;;13.50;99.90;;;12.21;100.00;100855.56;5000657;28;20062;-74
2021/07/02 03:02:42;;;;;;;39.60;11.07;;;13.50;99.90;;;12.17;100.00;100854.84;5001138;28;20157;-74
2021/07/02 03:05:09;;;;;;;44.88;12.40;;;13.50;99.90;;;12.16;100.00;100858.44;5003122;28;20057;-74
2021/07/02 03:07:35;;;;;;;26.58;10.10;;;13.40;99.90;;;12.13;100.00;100863.00;4991774;28;20081;-74
2021/07/02 03:10:01;;;;;;;32.22;10.80;;;13.40;99.90;;;12.12;100.00;100859.50;5001869;28;20143;-74
2021/07/02 03:12:27;;;;;;;33.45;10.65;;;13.40;99.90;;;12.10;100.00;100861.38;5006275;28;20083;-74
2021/07/02 03:14:54;;;;;;;30.88;11.13;;;13.40;99.90;;;12.09;100.00;100857.88;5004024;28;20057;-74
2021/07/02 03:17:21;;;;;;;28.40;11.02;;;13.40;99.90;;;12.13;100.00;100863.00;5002712;28;20457;-74
2021/07/02 03:19:47;;;;;;;52.88;11.32;;;13.40;99.90;;;12.14;100.00;100857.66;4995523;28;20075;-74
2021/07/02 03:22:13;;;;;;;30.95;10.45;;;13.40;99.90;;;12.14;100.00;100865.56;5010481;28;20064;-73
2021/07/02 03:24:39;;;;;;;34.58;11.20;;;13.40;99.90;;;12.12;100.00;100872.72;5008135;28;20149;-74
2021/07/02 03:27:05;;;;;;;33.65;11.30;;;13.40;99.90;;;12.13;100.00;100871.75;5013778;28;20633;-74
2021/07/02 03:29:31;;;;;;;30.83;10.10;;;13.40;99.90;;;12.14;100.00;100872.63;5001789;28;20451;-74
2021/07/02 03:31:57;;;;;;;40.78;12.02;;;13.50;99.90;;;12.21;100.00;100874.03;4999576;28;20065;-74
2021/07/02 03:34:23;;;;;;;34.17;11.75;;;13.50;99.90;;;12.29;100.00;100879.78;5004268;28;20092;-74
2021/07/02 03:36:49;;;;;;;35.15;10.95;;;13.60;99.90;;;12.34;100.00;100869.81;5001331;28;20055;-74
2021/07/02 03:39:16;;;;;;;29.38;10.88;;;13.70;99.90;;;12.35;100.00;100873.31;5005448;28;20086;-74
2021/07/02 03:41:42;;;;;;;46.65;11.27;;;13.70;99.90;;;12.43;100.00;100868.50;5000740;28;20064;-74
2021/07/02 03:44:07;;;;;;;28.48;10.40;;;13.70;99.90;;;12.47;100.00;100872.69;4993081;28;20063;-74
2021/07/02 03:46:33;;;;;;;35.72;10.55;;;13.80;99.90;;;12.52;100.00;100881.22;5008784;28;20083;-74
2021/07/02 03:48:59;;;;;;;32.70;10.20;;;13.70;99.90;;;12.45;100.00;100874.56;4993401;28;20680;-75
2021/07/02 03:51:25;;;;;;;39.60;11.65;;;13.70;99.90;;;12.45;100.00;100866.63;4961252;28;20082;-73
2021/07/02 03:53:51;;;;;;;31.15;11.00;;;13.70;99.90;;;12.53;100.00;100877.66;4981436;28;20080;-74
2021/07/02 03:56:17;;;;;;;31.80;10.30;;;13.80;99.90;;;12.49;100.00;100884.88;4974653;28;20046;-74
2021/07/02 03:58:43;;;;;;;33.97;9.75;;;13.80;99.90;;;12.52;100.00;100881.22;4972842;28;20522;-74
2021/07/02 04:01:09;;;;;;;28.10;10.82;;;13.80;99.90;;;12.54;100.00;100889.06;4989572;28;20061;-74
2021/07/02 04:03:35;;;;;;;32.65;10.32;;;13.80;99.90;;;12.63;100.00;100883.28;4986493;28;20455;-74
2021/07/02 04:06:02;;;;;;;29.42;10.25;;;14.20;99.90;;;13.01;100.00;100897.09;5000286;28;20086;-74
2021/07/02 04:08:28;;;;;;;46.05;10.98;;;14.20;99.90;;;13.02;100.00;100909.38;4981442;28;20055;-74
2021/07/02 04:10:54;;;;;;;24.60;8.98;;;14.20;99.90;;;12.99;100.00;100903.41;4975835;28;20538;-74
2021/07/02 04:13:22;;;;;;;38.92;9.25;;;14.30;99.90;;;13.12;100.00;100893.88;4971346;28;20574;-74
2021/07/02 04:15:49;;;;;;;28.30;8.75;;;14.70;99.90;;;13.83;100.00;100904.03;4984064;28;20067;-74
2021/07/02 04:18:15;;;;;;;25.10;9.40;;;15.10;99.90;;;13.92;100.00;100900.84;4980451;28;20064;-74
2021/07/02 04:20:41;;;;;;;22.77;7.78;;;15.10;99.90;;;14.00;100.00;100902.22;4961364;28;20442;-75
2021/07/02 04:23:07;;;;;;;14.35;7.15;;;15.70;99.90;;;14.94;100.00;100908.06;4985987;28;20029;-74
2021/07/02 04:25:33;;;;;;;24.50;7.47;;;16.50;99.90;;;15.60;100.00;100906.56;4981836;28;20069;-74
2021/07/02 04:27:59;;;;;;;24.13;6.18;;;17.40;99.90;;;16.57;98.53;100916.94;4971559;28;20080;-75
2021/07/02 04:30:25;;;;;;;17.33;5.10;;;17.90;99.90;;;16.52;96.99;100915.53;4988233;28;20026;-74
2021/07/02 04:32:50;;;;;;;11.88;4.82;;;17.80;99.90;;;16.52;97.21;100916.41;4973789;28;20035;-75
2021/07/02 04:35:16;;;;;;;25.20;5.20;;;18.40;99.90;;;17.08;96.65;100920.56;4980238;28;20045;-75
2021/07/02 04:37:42;;;;;;;25.40;5.00;;;18.80;99.90;;;17.22;92.14;100921.28;4973085;28;20439;-75
2021/07/02 04:40:11;;;;;;;17.42;4.72;;;18.20;99.90;;;16.80;94.34;100920.69;4978112;28;20029;-75
2021/07/02 04:42:38;;;;;;;18.02;4.45;;;17.90;99.90;;;16.69;96.12;100922.34;4982314;28;20118;-74
2021/07/02 04:45:05;;;;;;;11.30;5.13;;;18.00;99.90;;;16.81;94.68;100911.75;4955851;28;20530;-74
2021/07/02 04:47:32;;;;;;;18.83;5.07;;;18.10;99.90;;;17.15;93.33;100909.38;4982200;28;20064;-74
2021/07/02 04:50:00;;;;;;;21.73;5.20;;;18.60;99.90;;;17.53;92.53;100905.75;4980517;28;20026;-75
2021/07/02 04:52:27;;;;;;;16.80;5.00;;;19.10;99.90;;;18.17;91.15;100909.97;4982597;28;20022;-75
2021/07/02 04:54:53;;;;;;;25.33;4.97;;;19.20;99.90;;;18.03;90.82;100911.84;4980856;28;20034;-75
2021/07/02 04:57:18;;;;;;;21.42;4.93;;;19.00;99.90;;;17.76;92.41;100904.06;4971595;28;20489;-75
2021/07/02 04:59:46;;;;;;;13.68;4.28;;;18.50;99.90;;;17.08;95.57;100912.56;4971341;28;20034;-75
2021/07/02 05:02:12;;;;;;;17.23;4.40;;;18.00;99.90;;;16.74;97.70;100914.94;4978281;28;20121;-75
2021/07/02 05:04:38;;;;;;;15.65;4.90;;;17.70;99.90;;;16.70;99.28;100913.44;4981996;28;20038;-75
2021/07/02 05:07:05;;;;;;;18.98;4.68;;;17.70;99.90;;;16.66;99.73;100920.75;4979448;28;20109;-75
2021/07/02 05:09:31;;;;;;;9.32;4.32;;;17.80;99.90;;;16.90;99.78;100918.22;4980008;28;20501;-75
2021/07/02 05:11:57;;;;;;;11.63;4.95;;;18.50;99.90;;;17.88;96.13;100922.78;4962778;28;20038;-75
2021/07/02 05:14:23;;;;;;;13.73;4.30;;;19.20;99.90;;;18.52;93.34;100925.91;4934333;28;20018;-75
2021/07/02 05:16:48;;;;;;;15.63;3.63;;;19.70;99.90;;;18.68;92.30;100927.41;4972747;28;20027;-75
2021/07/02 05:19:14;;;;;;;9.57;3.28;;;19.90;99.90;;;18.71;91.85;100917.34;4970847;28;20081;-75
2021/07/02 05:21:40;;;;;;;4.93;3.03;;;19.60;99.90;;;18.28;94.05;100925.97;4979398;28;20034;-75
2021/07/02 05:24:06;;;;;;;11.15;3.85;;;19.40;99.90;;;18.29;94.61;100927.66;4982310;28;20033;-75
2021/07/02 05:26:32;;;;;;;16.15;3.28;;;19.70;99.90;;;19.11;91.83;100924.06;4985902;28;20045;-75
2021/07/02 05:29:01;;;;;;;6.15;2.90;;;20.70;99.90;;;20.03;88.44;100916.63;4978157;28;20033;-75
2021/07/02 05:31:26;;;;;;;5.50;2.90;;;21.80;99.90;;;20.95;84.13;100919.50;4972624;28;20041;-75
2021/07/02 05:33:52;;;;;;;10.15;3.17;;;22.70;99.90;;;21.54;82.54;100925.06;4976919;28;20046;-75
2021/07/02 05:36:18;;;;;;;11.70;2.70;;;23.30;99.90;;;21.83;80.40;100920.56;4981938;28;20026;-75
2021/07/02 05:38:44;;;;;;;7.43;2.53;;;23.00;99.90;;;21.52;80.45;100913.63;4981189;28;20177;-76
2021/07/02 05:41:12;;;;;;;4.03;2.53;;;22.80;99.90;;;21.69;80.54;100915.63;4969869;28;20957;-75
2021/07/02 05:43:38;;;;;;;11.50;2.97;;;23.20;99.90;;;22.17;78.69;100916.63;4982659;28;20030;-75
2021/07/02 05:46:06;;;;;;;5.90;2.35;;;23.70;99.90;;;22.81;75.06;100920.50;4978873;28;20087;-75
2021/07/02 05:48:33;;;;;;;8.20;2.28;;;24.30;99.90;;;23.23;73.30;100920.06;4970894;28;20418;-75
2021/07/02 05:50:59;;;;;;;6.80;3.33;;;24.90;99.90;;;23.99;70.96;100921.59;4971624;28;20034;-75
2021/07/02 05:53:25;;;;;;;19.92;2.97;;;25.30;99.90;;;24.49;68.77;100927.25;4985127;28;20033;-75
2021/07/02 05:55:51;;;;;;;4.50;2.30;;;25.30;99.90;;;24.50;67.28;100931.63;4993189;28;20066;-75
2021/07/02 05:58:17;;;;;;;8.52;3.08;;;25.50;99.90;;;25.10;66.29;100928.09;4990813;28;20074;-75
2021/07/02 06:00:42;;;;;;;10.15;2.67;;;26.20;99.90;;;25.14;65.57;100940.25;4964066;28;20038;-75
2021/07/02 06:03:09;;;;;;;6.88;2.92;;;27.50;99.90;;;25.90;65.71;100940.38;4978951;28;20087;-76
2021/07/02 06:05:35;;;;;;;8.25;2.30;;;26.60;99.90;;;25.27;63.75;100941.66;4997333;28;20033;-75
2021/07/02 06:08:01;;;;;;;17.55;2.72;;;26.70;99.90;;;25.82;63.95;100933.06;4990592;28;20139;-75
2021/07/02 06:10:27;;;;;;;4.78;2.70;;;26.70;99.90;;;26.05;62.86;100937.84;5003824;28;20200;-75
2021/07/02 06:12:54;;;;;;;5.80;2.63;;;26.80;99.90;;;25.92;61.79;100949.97;5009913;28;20537;-75
2021/07/02 06:15:21;;;;;;;7.20;2.90;;;27.30;99.90;;;26.66;57.06;100941.91;4999516;28;20482;-76
2021/07/02 06:17:50;;;;;;;12.63;2.50;;;27.90;99.90;;;26.66;57.35;100941.91;5005811;28;20465;-76
2021/07/02 06:20:22;;;;;;;6.43;2.78;;;27.50;99.90;;;26.26;58.97;100935.47;5001696;28;20415;-75
2021/07/02 06:22:48;;;;;;;7.97;3.15;;;28.00;99.90;;;26.55;59.12;100940.38;5003959;28;20028;-75
2021/07/02 06:25:14;;;;;;;6.57;2.70;;;28.40;99.90;;;26.38;56.56;100934.13;5004501;28;20034;-76
2021/07/02 06:27:40;;;;;;;7.50;2.90;;;27.30;99.90;;;26.02;58.88;100930.09;5015105;28;20113;-76
2021/07/02 06:30:07;;;;;;;11.60;2.80;;;26.30;99.90;;;25.40;59.99;100923.22;5018418;28;20121;-75
2021/07/02 06:32:34;;;;;;;8.10;2.60;;;26.50;99.90;;;25.24;62.97;100925.84;5002667;28;20494;-76
2021/07/02 06:35:00;;;;;;;8.77;2.50;;;26.60;99.90;;;24.98;63.42;100926.69;5002762;28;20041;-75
2021/07/02 06:37:26;;;;;;;8.15;3.22;;;25.90;99.90;;;23.43;66.28;100923.50;4979064;28;20039;-76
2021/07/02 06:39:52;;;;;;;5.85;2.95;;;25.40;99.90;;;24.04;68.78;100927.34;5003858;28;20025;-76
2021/07/02 06:42:18;;;;;;;10.15;2.65;;;25.50;99.90;;;23.84;67.83;100924.78;5000071;28;20088;-75
2021/07/02 06:44:44;;;;;;;6.75;2.63;;;26.20;99.90;;;25.38;62.53;100920.66;4994145;28;20446;-75
2021/07/02 06:47:10;;;;;;;6.50;2.70;;;26.80;99.90;;;25.63;60.13;100918.03;5016868;28;20188;-75
2021/07/02 06:49:38;;;;;;;4.47;2.72;;;27.10;99.90;;;25.18;62.80;100925.44;4975623;28;20032;-75
2021/07/02 06:52:08;;;;;;;8.25;3.20;;;26.50;99.90;;;24.10;65.08;100929.41;5004506;28;20027;-75
2021/07/02 06:54:35;;;;;;;6.72;3.05;;;25.30;99.90;;;23.27;67.28;100937.59;5003687;28;20031;-74
2021/07/02 06:57:01;;;;;;;10.20;3.22;;;24.20;99.90;;;22.10;72.35;100937.81;4984004;28;20508;-75
2021/07/02 06:59:30;;;;;;;9.70;3.83;;;23.10;99.90;;;20.75;78.17;100944.44;5000788;28;20037;-75
2021/07/02 07:01:57;;;;;;;11.10;2.88;;;22.20;99.90;;;20.34;80.99;100943.44;4992317;28;20106;-75
2021/07/02 07:04:25;;;;;;;8.13;3.40;;;21.70;99.90;;;20.33;83.14;100947.09;5000290;28;20029;-75
2021/07/02 07:06:51;;;;;;;8.02;3.15;;;21.30;99.90;;;20.16;82.77;100940.50;4998707;28;20137;-74
2021/07/02 07:09:17;;;;;;;10.00;3.70;;;21.20;99.90;;;20.27;83.36;100951.13;4994447;28;20104;-74
2021/07/02 07:11:43;;;;;;;10.80;3.10;;;21.00;99.90;;;20.23;84.80;101795.47;4982333;28;20496;-75
2021/07/02 07:14:09;;;;;;;10.05;2.80;;;21.60;99.90;;;21.13;80.63;101111.63;5002893;28;20041;-74
2021/07/02 07:16:35;;;;;;;11.73;3.63;;;22.10;99.90;;;21.44;78.28;100947.28;4993980;28;20444;-75
2021/07/02 07:19:01;;;;;;;10.48;3.30;;;22.40;99.90;;;21.91;77.09;100954.72;4997167;28;20065;-75
2021/07/02 07:21:27;;;;;;;9.93;3.75;;;22.50;99.90;;;22.03;77.10;100952.75;5015388;28;20022;-74
2021/07/02 07:23:53;;;;;;;12.23;3.10;;;22.90;99.90;;;22.28;73.38;100954.06;5001810;28;20113;-74
2021/07/02 07:26:19;;;;;;;9.05;2.92;;;23.60;99.90;;;23.72;68.03;100950.19;5000195;28;20041;-75
2021/07/02 07:28:45;;;;;;;12.30;3.50;;;24.70;99.90;;;24.39;64.38;100945.31;4993737;28;20547;-74
2021/07/02 07:31:11;;;;;;;5.22;2.85;;;25.40;99.90;;;25.32;60.95;100953.66;4983626;28;20037;-75
2021/07/02 07:33:41;;;;;;;7.80;2.80;;;25.60;99.90;;;24.33;61.32;100946.75;5006767;28;20038;-75
2021/07/02 07:36:09;;;;;;;10.40;3.28;;;24.80;99.90;;;23.30;67.08;100961.47;5002526;28;20018;-75
2021/07/02 07:38:35;;;;;;;7.18;3.47;;;22.90;99.90;;;21.63;74.77;100957.22;4982691;28;20036;-75
2021/07/02 07:41:01;;;;;;;6.22;3.40;;;21.70;99.90;;;20.72;80.11;100966.13;4957354;28;20026;-75
2021/07/02 07:43:27;;;;;;;11.00;3.53;;;21.60;99.90;;;20.79;80.69;100972.63;4981804;28;20940;-75
2021/07/02 07:45:53;;;;;;;10.63;3.80;;;22.60;99.90;;;22.59;74.21;100968.16;4971601;28;20386;-75
2021/07/02 07:48:19;;;;;;;7.45;3.90;;;23.90;99.90;;;24.21;68.57;100966.84;4983706;28;20054;-75
2021/07/02 07:50:49;;;;;;;13.23;3.55;;;24.30;99.90;;;23.69;67.19;100969.31;4971306;28;20062;-74
2021/07/02 07:53:15;;;;;;;10.45;3.65;;;24.10;99.90;;;23.10;70.80;100968.75;4974536;28;20028;-75
2021/07/02 07:55:41;;;;;;;6.75;3.50;;;23.40;99.90;;;22.10;74.55;100970.84;4981179;28;20406;-74
2021/07/02 07:58:07;;;;;;;7.22;3.55;;;23.10;99.90;;;22.00;73.32;100969.97;4997027;28;20026;-75
2021/07/02 08:00:33;;;;;;;7.85;4.32;;;22.50;99.90;;;21.23;76.08;100978.63;4984564;28;20022;-75
2021/07/02 08:03:00;;;;;;;10.13;4.05;;;22.50;99.90;;;21.28;75.91;100979.94;4982155;28;20110;-75
2021/07/02 08:05:28;;;;;;;7.75;3.78;;;23.00;99.90;;;22.99;70.36;100971.59;4981700;28;20509;-75
2021/07/02 08:07:55;;;;;;;13.35;4.07;;;23.50;99.90;;;22.10;71.45;100976.19;4988451;28;20041;-75
2021/07/02 08:10:22;;;;;;;13.43;3.67;;;23.60;99.90;;;23.25;69.70;100985.25;4980593;28;20038;-75
2021/07/02 08:12:49;;;;;;;7.22;3.38;;;24.40;99.90;;;23.99;67.30;100978.91;4978715;28;20465;-75
2021/07/02 08:15:17;;;;;;;11.73;3.92;;;24.20;99.90;;;22.93;65.55;100989.13;4982466;28;20061;-75
2021/07/02 08:17:43;;;;;;;8.18;3.70;;;23.40;99.90;;;22.19;70.83;100990.59;4971611;28;20108;-75
2021/07/02 08:20:11;;;;;;;20.63;4.10;;;22.80;99.90;;;21.37;74.65;100982.78;4986173;28;20390;-75
2021/07/02 08:22:38;;;;;;;8.75;4.30;;;22.20;99.90;;;20.43;77.91;100993.47;5001464;28;20048;-75
2021/07/02 08:25:06;;;;;;;9.40;4.13;;;21.70;99.90;;;20.41;78.85;100993.63;5007924;28;20037;-74
2021/07/02 08:29:22;;;;;;;8.25;4.00;;;21.40;99.90;;;20.36;79.89;100994.97;4989844;28;20046;-75
2021/07/02 08:30:21;;;;;;;12.27;4.15;;;21.20;99.90;;;20.16;80.66;100991.28;4999291;28;20038;-74
2021/07/02 08:32:47;;;;;;;12.85;4.93;;;21.30;99.90;;;20.55;81.64;100987.09;4998395;28;20029;-74
2021/07/02 08:35:15;;;;;;;9.48;4.47;;;22.50;99.90;;;22.43;73.98;100979.47;5002001;28;20100;-73
2021/07/02 08:37:41;;;;;;;8.75;4.03;;;24.10;99.90;;;23.88;67.35;100974.59;5000912;28;20034;-73
2021/07/02 08:40:08;;;;;;;6.90;3.83;;;24.40;99.90;;;23.69;65.83;100977.38;4993217;28;20567;-75
2021/07/02 08:42:35;;;;;;;12.07;4.43;;;24.50;99.90;;;24.28;66.71;100978.69;4999754;28;20366;-75
2021/07/02 08:45:02;;;;;;;16.20;4.90;;;25.10;99.90;;;24.38;64.28;100980.44;5015688;28;20076;-74
2021/07/02 08:47:29;;;;;;;11.15;4.28;;;25.30;99.90;;;24.43;65.09;100986.19;4990590;28;20030;-74
2021/07/02 08:49:56;;;;;;;15.95;4.18;;;25.60;99.90;;;25.07;61.02;100976.06;5002881;28;20029;-75
2021/07/02 08:52:22;;;;;;;11.48;3.97;;;25.50;99.90;;;24.34;62.80;100988.84;4999089;28;20022;-75
2021/07/02 08:54:48;;;;;;;11.75;3.65;;;25.10;99.90;;;23.64;63.23;100993.13;5002007;28;20034;-74
2021/07/02 08:57:14;;;;;;;8.70;4.45;;;24.50;99.90;;;23.29;64.76;100994.69;5015705;28;20048;-75
2021/07/02 08:59:40;;;;;;;8.73;4.32;;;24.00;99.90;;;22.98;66.40;100988.69;5000598;28;20034;-75
2021/07/02 09:02:41;;;;;;;29.73;4.78;;;24.10;99.90;;;23.17;68.34;100990.50;4951319;28;20050;-74
2021/07/02 09:05:44;;;;;;;11.65;4.75;;;23.90;99.90;;;22.56;66.95;100992.59;4956635;28;20052;-75
2021/07/02 09:08:26;;;;;;;13.95;4.68;;;23.00;99.90;;;22.23;69.99;101000.09;4973197;28;20041;-75
2021/07/02 09:11:32;;;;;;;10.10;4.75;;;23.00;99.90;;;22.34;70.21;101000.94;4957671;28;20045;-75
2021/07/02 09:14:26;;;;;;;9.10;4.40;;;23.20;99.90;;;22.30;68.27;100995.84;4963180;28;20543;-75
2021/07/02 09:17:24;;;;;;;8.82;4.78;;;23.10;99.90;;;22.16;69.70;101003.44;4978000;28;20137;-75
2021/07/02 09:20:43;;;;;;;10.38;4.60;;;22.60;99.90;;;21.80;71.08;101003.94;4960959;28;20443;-75
2021/07/02 09:23:57;;;;;;;10.88;4.20;;;22.70;99.90;;;22.12;70.35;101000.19;4979365;28;20561;-74
2021/07/02 09:27:03;;;;;;;14.98;4.45;;;22.90;99.90;;;22.57;67.69;101004.16;4960339;28;20571;-75
2021/07/02 09:30:15;;;;;;;15.98;5.32;;;23.70;99.90;;;23.37;66.93;100997.50;4959224;28;20030;-75
2021/07/02 09:33:24;;;;;;;13.50;4.80;;;24.00;99.90;;;23.33;65.95;101007.69;4959257;28;20050;-74
2021/07/02 09:36:47;;;;;;;9.50;5.00;;;23.80;99.90;;;22.43;68.38;101008.13;4944759;28;20038;-75
2021/07/02 09:39:43;;;;;;;14.30;5.57;;;23.20;99.90;;;21.85;71.82;101004.38;4950710;28;20073;-74
2021/07/02 09:42:41;;;;;;;11.77;5.53;;;23.30;99.90;;;23.02;72.17;101012.44;4951961;28;20052;-74
2021/07/02 09:45:19;;;;;;;11.20;4.88;;;24.20;99.90;;;23.90;65.00;101010.25;4951608;28;20050;-75
2021/07/02 09:48:27;;;;;;;8.30;4.78;;;24.50;99.90;;;23.52;63.56;101030.94;4959475;28;20059;-75
2021/07/02 09:51:41;;;;;;;11.45;5.78;;;24.00;99.90;;;22.85;68.17;101023.91;4953487;28;20118;-74
2021/07/02 09:55:11;;;;;;;9.77;5.55;;;23.80;99.90;;;23.72;67.23;101023.63;4945891;28;20100;-75
2021/07/02 09:58:18;;;;;;;11.25;5.30;;;24.60;99.90;;;23.74;62.26;101023.47;4946853;28;20088;-75
2021/07/02 10:01:40;;;;;;;12.38;5.05;;;24.20;99.90;;;23.00;65.08;101027.88;4938177;28;20038;-74
2021/07/02 10:05:11;;;;;;;10.60;6.22;;;23.40;99.90;;;22.04;69.82;101035.75;4957660;28;20135;-74
2021/07/02 10:08:46;;;;;;;14.90;6.50;;;23.10;99.90;;;22.00;71.38;101030.81;4955257;28;20038;-75
2021/07/02 10:11:50;;;;;;;9.35;5.63;;;23.50;99.90;;;22.99;68.23;101028.00;4945171;28;20055;-75
2021/07/02 10:15:13;;;;;;;12.57;5.93;;;23.80;99.90;;;22.96;67.39;101034.50;4944617;28;20116;-75
2021/07/02 10:18:25;;;;;;;8.48;5.65;;;24.10;99.90;;;23.63;65.48;101029.91;4941384;28;20089;-74